createdAt,value
2023-02-19T00:02:49.820Z,8.04
2023-02-19T00:06:54.497Z,8.00
2023-02-19T00:11:02.326Z,7.96
2023-02-19T00:15:06.316Z,8.05
2023-02-19T00:19:13.953Z,8.04
2023-02-19T00:23:18.499Z,8.01
2023-02-19T00:27:21.787Z,7.99
2023-02-19T00:31:27.657Z,8.06
2023-02-19T00:35:31.250Z,8.00
2023-02-19T00:39:36.585Z,8.01
2023-02-19T00:43:39.987Z,8.07
2023-02-19T00:47:43.114Z,8.07
2023-02-19T00:51:47.229Z,7.91
2023-02-19T00:55:54.439Z,7.90
2023-02-19T01:00:01.686Z,7.88
2023-02-19T01:04:06.844Z,7.89
2023-02-19T01:08:13.652Z,7.83
2023-02-19T01:12:28.437Z,7.85
2023-02-19T01:16:35.100Z,7.83
2023-02-19T01:20:41.069Z,7.83
2023-02-19T01:24:47.892Z,7.84
2023-02-19T01:28:52.925Z,7.84
2023-02-19T01:32:59.472Z,7.84
2023-02-19T01:37:03.480Z,7.86
2023-02-19T01:41:10.049Z,7.88
2023-02-19T01:45:32.005Z,7.90
2023-02-19T01:49:39.110Z,7.81
2023-02-19T01:53:45.094Z,7.89
2023-02-19T01:57:52.985Z,7.93
2023-02-19T02:02:00.844Z,7.94
2023-02-19T02:06:20.398Z,7.95
2023-02-19T02:10:25.850Z,7.89
2023-02-19T02:14:31.627Z,7.89
2023-02-19T02:18:44.051Z,7.92
2023-02-19T02:22:50.831Z,7.93
2023-02-19T02:27:06.009Z,7.90
2023-02-19T02:31:12.259Z,7.88
2023-02-19T02:35:19.456Z,7.75
2023-02-19T02:39:25.477Z,7.81
2023-02-19T02:43:28.603Z,7.86
2023-02-19T02:47:42.611Z,7.88
2023-02-19T02:51:49.344Z,7.86
2023-02-19T02:55:53.447Z,7.85
2023-02-19T02:59:57.275Z,7.75
2023-02-19T03:04:02.977Z,7.79
2023-02-19T03:08:11.206Z,7.75
2023-02-19T03:12:33.941Z,7.78
2023-02-19T03:17:08.148Z,7.74
2023-02-19T03:21:13.648Z,7.69
2023-02-19T03:25:41.519Z,7.75
2023-02-19T03:29:46.521Z,7.76
2023-02-19T03:33:58.484Z,7.76
2023-02-19T03:38:06.594Z,7.76
2023-02-19T03:42:17.928Z,7.71
2023-02-19T03:46:26.418Z,7.70
2023-02-19T03:50:31.351Z,7.70
2023-02-19T03:54:40.702Z,7.70
2023-02-19T03:58:52.870Z,7.59
2023-02-19T04:02:59.406Z,7.67
2023-02-19T04:07:09.533Z,7.68
2023-02-19T04:11:14.208Z,7.70
2023-02-19T04:15:22.087Z,7.59
2023-02-19T04:19:27.432Z,7.68
2023-02-19T04:23:34.240Z,7.75
2023-02-19T04:27:41.712Z,7.75
2023-02-19T04:31:45.460Z,7.68
2023-02-19T04:35:48.984Z,7.67
2023-02-19T04:39:55.130Z,7.73
2023-02-19T04:43:59.934Z,7.67
2023-02-19T04:48:07.702Z,7.71
2023-02-19T04:52:11.505Z,7.50
2023-02-19T04:56:23.935Z,7.69
2023-02-19T05:00:29.510Z,7.66
2023-02-19T05:04:34.653Z,7.64
2023-02-19T05:08:46.564Z,7.71
2023-02-19T05:12:53.117Z,7.69
2023-02-19T05:17:00.099Z,7.78
2023-02-19T05:21:09.479Z,7.75
2023-02-19T05:25:17.242Z,7.74
2023-02-19T05:29:31.922Z,7.69
2023-02-19T05:38:10.731Z,7.69
2023-02-19T05:42:16.595Z,7.76
2023-02-19T05:46:22.159Z,7.79
2023-02-19T05:50:42.120Z,7.71
2023-02-19T05:54:47.751Z,7.78
2023-02-19T05:58:58.707Z,7.76
2023-02-19T06:03:06.217Z,7.70
2023-02-19T06:07:14.077Z,7.74
2023-02-19T06:11:20.736Z,7.76
2023-02-19T06:15:24.896Z,7.63
2023-02-19T06:19:41.840Z,7.74
2023-02-19T06:23:49.983Z,7.72
2023-02-19T06:27:53.457Z,7.69
2023-02-19T06:31:59.033Z,7.66
2023-02-19T06:36:08.668Z,7.66
2023-02-19T06:40:17.416Z,7.61
2023-02-19T06:44:24.992Z,7.54
2023-02-19T06:48:31.021Z,7.71
2023-02-19T06:52:35.030Z,7.64
2023-02-19T06:56:51.205Z,7.76
2023-02-19T07:00:58.913Z,7.66
2023-02-19T07:05:02.374Z,7.76
2023-02-19T07:09:07.004Z,7.76
2023-02-19T07:13:11.330Z,7.70
2023-02-19T07:17:14.510Z,7.62
2023-02-19T07:21:22.036Z,7.82
2023-02-19T07:25:26.008Z,7.82
2023-02-19T07:29:31.391Z,7.80
2023-02-19T07:33:36.770Z,7.83
2023-02-19T07:37:40.122Z,7.78
2023-02-19T07:41:43.357Z,7.83
2023-02-19T07:45:47.864Z,7.82
2023-02-19T07:49:50.921Z,7.68
2023-02-19T07:53:54.908Z,7.93
2023-02-19T07:57:59.497Z,7.92
2023-02-19T08:02:20.889Z,8.00
2023-02-19T08:06:24.278Z,7.98
2023-02-19T08:15:02.072Z,7.98
2023-02-19T08:19:06.425Z,8.12
2023-02-19T08:23:09.511Z,8.06
2023-02-19T08:27:12.370Z,8.04
2023-02-19T08:31:15.558Z,7.94
2023-02-19T08:35:20.551Z,8.12
2023-02-19T08:39:23.497Z,8.15
2023-02-19T08:43:26.218Z,8.24
2023-02-19T08:47:29.137Z,8.35
2023-02-19T08:51:33.578Z,8.44
2023-02-19T08:55:38.653Z,8.58
2023-02-19T08:59:41.503Z,8.51
2023-02-19T09:03:44.841Z,8.57
2023-02-19T09:07:49.543Z,8.59
2023-02-19T09:11:52.300Z,8.63
2023-02-19T09:15:57.077Z,8.66
2023-02-19T09:20:01.126Z,8.63
2023-02-19T09:24:06.135Z,8.70
2023-02-19T09:28:09.025Z,8.62
2023-02-19T09:32:13.067Z,8.68
2023-02-19T09:36:20.940Z,8.82
2023-02-19T09:40:25.517Z,8.74
2023-02-19T09:44:30.981Z,8.65
2023-02-19T09:48:39.932Z,8.68
2023-02-19T09:52:45.884Z,8.45
2023-02-19T09:56:51.513Z,8.45
2023-02-19T10:01:01.094Z,8.54
2023-02-19T10:05:09.097Z,8.61
2023-02-19T10:09:22.278Z,8.65
2023-02-19T10:13:32.488Z,8.72
2023-02-19T10:17:41.303Z,8.73
2023-02-19T10:21:44.792Z,8.95
2023-02-19T10:25:50.417Z,9.18
2023-02-19T10:29:54.756Z,9.43
2023-02-19T10:34:00.458Z,9.39
2023-02-19T10:38:06.825Z,9.42
2023-02-19T10:42:16.866Z,9.49
2023-02-19T10:46:21.984Z,9.56
2023-02-19T10:50:32.058Z,9.57
2023-02-19T10:54:36.144Z,9.58
2023-02-19T10:58:42.366Z,9.79
2023-02-19T11:02:46.888Z,9.62
2023-02-19T11:06:49.795Z,9.72
2023-02-19T11:10:52.850Z,9.91
2023-02-19T11:14:56.926Z,9.95
2023-02-19T11:19:01.229Z,9.46
2023-02-19T11:23:16.347Z,9.83
2023-02-19T11:27:22.389Z,9.71
2023-02-19T11:31:27.893Z,9.77
2023-02-19T11:35:32.453Z,9.74
2023-02-19T11:39:35.867Z,9.50
2023-02-19T11:44:01.074Z,9.65
2023-02-19T11:48:25.100Z,10.01
2023-02-19T11:52:35.861Z,10.12
2023-02-19T11:56:40.651Z,10.25
2023-02-19T12:00:49.354Z,10.25
2023-02-19T12:05:29.180Z,10.42
2023-02-19T12:09:41.931Z,10.45
2023-02-19T12:13:57.488Z,10.49
2023-02-19T12:18:21.412Z,10.25
2023-02-19T12:22:33.137Z,10.67
2023-02-19T12:26:40.526Z,10.86
2023-02-19T12:30:56.557Z,10.86
2023-02-19T12:35:18.164Z,10.65
2023-02-19T12:39:26.942Z,10.70
2023-02-19T12:43:32.270Z,10.08
2023-02-19T12:47:39.966Z,10.47
2023-02-19T12:51:47.824Z,10.25
2023-02-19T12:55:52.956Z,10.21
2023-02-19T13:00:03.712Z,10.01
2023-02-19T13:04:20.721Z,9.99
2023-02-19T13:08:27.264Z,9.96
2023-02-19T13:12:32.766Z,10.12
2023-02-19T13:16:43.330Z,10.19
2023-02-19T13:20:46.817Z,10.07
2023-02-19T13:24:51.164Z,10.19
2023-02-19T13:29:18.285Z,10.31
2023-02-19T13:33:34.471Z,10.15
2023-02-19T13:37:37.424Z,10.24
2023-02-19T13:41:43.912Z,10.05
2023-02-19T13:45:47.241Z,10.10
2023-02-19T13:49:52.466Z,10.14
2023-02-19T13:54:02.273Z,10.04
2023-02-19T13:58:23.867Z,10.14
2023-02-19T14:02:33.541Z,9.84
2023-02-19T14:07:21.125Z,10.13
2023-02-19T14:12:03.271Z,10.08
2023-02-19T14:16:46.196Z,10.17
2023-02-19T14:20:49.410Z,10.09
2023-02-19T14:24:54.045Z,9.97
2023-02-19T14:28:57.328Z,10.03
2023-02-19T14:33:10.714Z,9.89
2023-02-19T14:37:18.323Z,9.98
2023-02-19T14:41:24.345Z,9.74
2023-02-19T14:45:29.466Z,9.81
2023-02-19T14:49:38.677Z,9.42
2023-02-19T14:53:44.973Z,9.68
2023-02-19T14:57:49.767Z,9.60
2023-02-19T15:01:57.391Z,9.33
2023-02-19T15:06:09.099Z,9.30
2023-02-19T15:10:14.054Z,9.01
2023-02-19T15:14:23.884Z,9.06
2023-02-19T15:18:27.931Z,9.09
2023-02-19T15:22:33.017Z,9.04
2023-02-19T15:26:37.272Z,9.20
2023-02-19T15:30:44.284Z,9.17
2023-02-19T15:34:55.960Z,9.25
2023-02-19T15:39:02.500Z,9.19
2023-02-19T15:43:05.973Z,9.23
2023-02-19T15:47:15.230Z,9.23
2023-02-19T15:51:22.080Z,9.08
2023-02-19T15:55:31.346Z,9.15
2023-02-19T15:59:39.349Z,9.08
2023-02-19T16:03:42.322Z,9.18
2023-02-19T16:07:45.285Z,9.14
2023-02-19T16:11:51.970Z,9.11
2023-02-19T16:15:59.738Z,9.04
2023-02-19T16:20:03.819Z,8.97
2023-02-19T16:24:12.552Z,9.04
2023-02-19T16:28:24.167Z,8.80
2023-02-19T16:32:27.108Z,8.73
2023-02-19T16:36:38.154Z,8.85
2023-02-19T16:41:13.237Z,8.92
2023-02-19T16:45:18.130Z,8.88
2023-02-19T16:49:21.157Z,8.88
2023-02-19T16:53:25.918Z,8.83
2023-02-19T16:57:29.547Z,8.79
2023-02-19T17:01:34.215Z,8.73
2023-02-19T17:05:38.152Z,8.71
2023-02-19T17:09:40.980Z,8.71
2023-02-19T17:13:46.313Z,8.62
2023-02-19T17:17:50.598Z,8.72
2023-02-19T17:21:53.365Z,8.67
2023-02-19T17:25:56.179Z,8.62
2023-02-19T17:29:59.845Z,8.61
2023-02-19T17:34:05.032Z,8.66
2023-02-19T17:38:09.853Z,8.62
2023-02-19T17:42:13.128Z,8.59
2023-02-19T17:46:16.863Z,8.63
2023-02-19T17:50:22.292Z,8.58
2023-02-19T17:54:25.749Z,8.52
2023-02-19T17:58:28.867Z,8.54
2023-02-19T18:02:32.210Z,8.54
2023-02-19T18:06:36.698Z,8.52
2023-02-19T18:10:40.320Z,8.57
2023-02-19T18:14:43.781Z,8.46
2023-02-19T18:18:47.085Z,8.51
2023-02-19T18:22:52.375Z,8.52
2023-02-19T18:26:56.666Z,8.47
2023-02-19T18:31:00.432Z,8.46
2023-02-19T18:35:03.830Z,8.49
2023-02-19T18:39:08.418Z,8.39
2023-02-19T18:43:11.822Z,8.49
2023-02-19T18:47:15.158Z,8.41
2023-02-19T18:51:18.598Z,8.40
2023-02-19T18:55:23.298Z,8.41
2023-02-19T18:59:26.449Z,8.37
2023-02-19T19:03:31.153Z,8.31
2023-02-19T19:07:34.163Z,8.31
2023-02-19T19:11:39.024Z,8.28
2023-02-19T19:15:42.240Z,8.27
2023-02-19T19:19:45.898Z,8.22
2023-02-19T19:23:49.400Z,8.30
2023-02-19T19:27:56.603Z,8.21
2023-02-19T19:31:59.833Z,8.21
2023-02-19T19:36:03.171Z,8.16
2023-02-19T19:40:07.353Z,8.22
2023-02-19T19:44:12.253Z,8.30
2023-02-19T19:48:15.390Z,8.29
2023-02-19T19:52:18.752Z,8.07
2023-02-19T19:56:22.179Z,8.25
2023-02-19T20:00:27.220Z,8.24
2023-02-19T20:04:30.892Z,8.23
2023-02-19T20:08:33.870Z,8.23
2023-02-19T20:12:37.030Z,8.18
2023-02-19T20:16:44.585Z,8.15
2023-02-19T20:20:48.244Z,8.14
2023-02-19T20:24:52.075Z,8.19
2023-02-19T20:28:55.182Z,8.13
2023-02-19T20:32:59.860Z,7.93
2023-02-19T20:37:03.272Z,7.83
2023-02-19T20:41:06.732Z,7.70
2023-02-19T20:45:10.636Z,7.75
2023-02-19T20:49:15.177Z,7.64
2023-02-19T20:53:18.421Z,7.52
2023-02-19T20:57:22.150Z,7.12
2023-02-19T21:01:27.577Z,7.11
2023-02-19T21:05:32.306Z,7.07
2023-02-19T21:09:35.549Z,7.10
2023-02-19T21:13:39.127Z,7.09
2023-02-19T21:17:42.317Z,7.01
2023-02-19T21:21:47.080Z,6.96
2023-02-19T21:25:50.440Z,6.91
2023-02-19T21:29:53.672Z,7.03
2023-02-19T21:33:57.120Z,7.15
2023-02-19T21:38:01.821Z,7.16
2023-02-19T21:42:05.420Z,7.00
2023-02-19T21:46:08.639Z,7.09
2023-02-19T21:50:12.304Z,6.79
2023-02-19T21:54:21.014Z,6.52
2023-02-19T21:58:24.312Z,6.70
2023-02-19T22:02:27.527Z,6.46
2023-02-19T22:06:32.070Z,6.36
2023-02-19T22:10:36.631Z,6.32
2023-02-19T22:14:39.722Z,6.25
2023-02-19T22:18:48.391Z,6.06
2023-02-19T22:22:51.566Z,6.07
2023-02-19T22:26:58.919Z,5.95
2023-02-19T22:31:02.078Z,5.49
2023-02-19T22:35:05.335Z,5.62
2023-02-19T22:39:12.234Z,5.77
2023-02-19T22:43:20.037Z,5.68
2023-02-19T22:47:23.231Z,5.51
2023-02-19T22:51:27.043Z,5.31
2023-02-19T22:55:31.201Z,5.16
2023-02-19T22:59:35.620Z,4.57
2023-02-19T23:03:46.704Z,4.51
2023-02-19T23:07:50.117Z,4.87
2023-02-19T23:11:54.157Z,4.82
2023-02-19T23:15:58.828Z,4.39
2023-02-19T23:20:03.259Z,4.37
2023-02-19T23:24:07.743Z,3.87
2023-02-19T23:28:11.441Z,3.95
2023-02-19T23:32:20.990Z,3.82
2023-02-19T23:36:24.657Z,4.02
2023-02-19T23:40:28.413Z,3.82
2023-02-19T23:44:31.619Z,3.55
2023-02-19T23:48:36.490Z,3.66
2023-02-19T23:52:39.863Z,3.55
2023-02-19T23:56:43.048Z,3.25
